createdAt,value
2019-03-21T00:04:24.016Z,9.80
2019-03-21T00:09:26.903Z,9.10
2019-03-21T00:14:56.366Z,8.88
2019-03-21T00:20:00.495Z,9.55
2019-03-21T00:25:03.297Z,10.28
2019-03-21T00:30:10.700Z,9.83
2019-03-21T00:35:13.565Z,10.85
2019-03-21T00:40:19.219Z,11.35
2019-03-21T00:45:21.801Z,9.05
2019-03-21T00:50:25.103Z,9.60
2019-03-21T00:55:28.722Z,10.45
2019-03-21T01:00:34.560Z,9.55
2019-03-21T01:05:37.309Z,9.40
2019-03-21T01:10:39.952Z,9.38
2019-03-21T01:15:42.542Z,9.55
2019-03-21T01:20:45.125Z,9.73
2019-03-21T01:25:49.555Z,9.88
2019-03-21T01:30:52.186Z,9.73
2019-03-21T01:35:54.789Z,10.20
2019-03-21T01:40:57.714Z,9.80
2019-03-21T01:46:00.486Z,9.45
2019-03-21T01:51:03.077Z,9.40
2019-03-21T01:56:05.774Z,8.98
2019-03-21T02:01:09.013Z,9.65
2019-03-21T02:06:11.624Z,9.85
2019-03-21T02:11:14.428Z,10.23
2019-03-21T02:16:17.090Z,10.23
2019-03-21T02:21:20.309Z,10.00
2019-03-21T02:26:22.918Z,9.55
2019-03-21T02:31:25.500Z,9.38
2019-03-21T02:36:28.347Z,9.60
2019-03-21T02:41:30.988Z,8.05
2019-03-21T02:46:33.605Z,8.78
2019-03-21T02:51:36.264Z,8.43
2019-03-21T02:56:39.305Z,7.87
2019-03-21T03:01:41.990Z,7.90
2019-03-21T03:06:46.546Z,8.18
2019-03-21T03:11:49.314Z,7.72
2019-03-21T03:16:51.932Z,8.10
2019-03-21T03:21:55.020Z,8.60
2019-03-21T03:26:57.640Z,8.55
2019-03-21T03:32:00.336Z,8.88
2019-03-21T03:37:03.004Z,9.80
2019-03-21T03:42:05.675Z,9.05
2019-03-21T03:47:08.412Z,9.25
2019-03-21T03:52:11.032Z,8.93
2019-03-21T03:57:15.947Z,9.53
2019-03-21T04:02:18.842Z,9.00
2019-03-21T04:07:22.003Z,8.95
2019-03-21T04:12:24.809Z,9.90
2019-03-21T04:17:27.651Z,9.78
2019-03-21T04:22:30.273Z,9.53
2019-03-21T04:27:33.257Z,9.80
2019-03-21T04:32:35.876Z,9.80
2019-03-21T04:37:38.802Z,9.30
2019-03-21T04:42:41.710Z,8.58
2019-03-21T04:47:44.743Z,8.83
2019-03-21T04:52:47.383Z,10.20
2019-03-21T04:57:50.355Z,9.98
2019-03-21T05:02:54.981Z,9.70
2019-03-21T05:07:57.596Z,10.15
2019-03-21T05:13:00.722Z,9.83
2019-03-21T05:18:12.479Z,9.78
2019-03-21T05:23:15.269Z,9.63
2019-03-21T05:28:17.886Z,9.75
2019-03-21T05:33:20.546Z,9.08
2019-03-21T05:38:23.882Z,10.50
2019-03-21T05:43:33.287Z,10.60
2019-03-21T05:48:35.909Z,10.18
2019-03-21T05:53:38.606Z,10.68
2019-03-21T05:58:41.309Z,11.83
2019-03-21T06:03:50.492Z,11.35
2019-03-21T06:08:53.112Z,10.70
2019-03-21T06:13:56.120Z,10.48
2019-03-21T06:19:18.220Z,10.18
2019-03-21T06:24:41.990Z,9.88
2019-03-21T06:29:44.714Z,10.35
2019-03-21T06:34:47.574Z,9.60
2019-03-21T06:39:50.446Z,9.60
2019-03-21T06:44:53.133Z,9.03
2019-03-21T06:49:56.013Z,9.05
2019-03-21T06:55:40.416Z,9.03
2019-03-21T07:00:40.672Z,10.05
2019-03-21T07:05:43.291Z,8.65
2019-03-21T07:10:46.270Z,9.28
2019-03-21T07:15:49.112Z,9.35
2019-03-21T07:20:52.001Z,8.73
2019-03-21T07:25:54.633Z,8.95
2019-03-21T07:30:57.240Z,9.13
2019-03-21T07:36:00.175Z,8.10
2019-03-21T07:41:02.813Z,7.80
2019-03-21T07:46:05.767Z,8.40
2019-03-21T07:51:09.034Z,8.43
2019-03-21T07:56:11.616Z,7.70
2019-03-21T08:01:14.276Z,7.30
2019-03-21T08:06:17.156Z,6.28
2019-03-21T08:11:19.689Z,6.78
2019-03-21T08:16:22.644Z,6.87
2019-03-21T08:21:25.257Z,7.33
2019-03-21T08:26:27.855Z,7.00
2019-03-21T08:31:30.653Z,7.62
2019-03-21T08:36:33.531Z,7.15
2019-03-21T08:41:36.226Z,7.78
2019-03-21T08:46:39.005Z,7.80
2019-03-21T08:51:42.945Z,8.05
2019-03-21T08:56:46.130Z,7.55
2019-03-21T09:01:49.076Z,7.10
2019-03-21T09:06:52.772Z,7.85
2019-03-21T09:11:55.868Z,7.50
2019-03-21T09:16:58.496Z,7.87
2019-03-21T09:22:01.383Z,7.53
2019-03-21T09:27:04.145Z,7.30
2019-03-21T09:32:06.911Z,7.40
2019-03-21T09:37:09.614Z,6.62
2019-03-21T09:42:12.568Z,5.75
2019-03-21T09:47:15.203Z,6.22
2019-03-21T09:52:17.791Z,5.62
2019-03-21T09:57:20.476Z,5.78
2019-03-21T10:02:23.157Z,5.37
2019-03-21T10:07:25.754Z,5.20
2019-03-21T10:12:28.398Z,4.58
2019-03-21T10:17:31.138Z,4.58
2019-03-21T10:22:33.739Z,4.85
2019-03-21T10:27:36.323Z,4.30
2019-03-21T10:32:39.388Z,4.05
2019-03-21T10:37:42.043Z,4.78
2019-03-21T10:42:44.823Z,3.70
2019-03-21T10:47:48.323Z,3.27
2019-03-21T10:52:51.475Z,3.42
2019-03-21T10:57:54.445Z,4.00
2019-03-21T11:02:57.210Z,4.40
2019-03-21T11:07:59.845Z,4.33
2019-03-21T11:13:02.877Z,4.30
2019-03-21T11:18:05.613Z,4.72
2019-03-21T11:23:08.784Z,4.90
2019-03-21T11:28:11.639Z,4.53
2019-03-21T11:33:14.379Z,4.00
2019-03-21T11:38:17.074Z,3.67
2019-03-21T11:43:20.079Z,4.30
2019-03-21T11:48:22.750Z,3.45
2019-03-21T11:53:25.642Z,3.58
2019-03-21T11:58:28.278Z,4.25
2019-03-21T12:03:30.957Z,4.60
2019-03-21T12:08:33.551Z,4.72
2019-03-21T12:13:36.207Z,3.77
2019-03-21T12:18:38.895Z,3.87
2019-03-21T12:23:41.725Z,4.17
2019-03-21T12:28:44.390Z,4.00
2019-03-21T12:33:47.002Z,4.83
2019-03-21T12:38:49.698Z,5.08
2019-03-21T12:43:52.895Z,4.60
2019-03-21T12:48:55.511Z,4.45
2019-03-21T12:53:58.212Z,4.87
2019-03-21T12:59:00.836Z,4.60
2019-03-21T13:04:03.652Z,4.53
2019-03-21T13:09:07.391Z,5.05
2019-03-21T13:14:10.013Z,4.78
2019-03-21T13:19:12.666Z,4.80
2019-03-21T13:24:19.205Z,4.72
2019-03-21T13:29:19.914Z,4.47
2019-03-21T13:34:22.547Z,4.78
2019-03-21T13:39:25.402Z,4.37
2019-03-21T13:44:28.124Z,5.12
2019-03-21T13:49:30.823Z,6.25
2019-03-21T13:54:33.520Z,5.30
2019-03-21T13:59:36.210Z,5.17
2019-03-21T14:04:39.108Z,4.97
2019-03-21T14:09:42.220Z,4.58
2019-03-21T14:14:44.855Z,5.10
2019-03-21T14:19:47.487Z,4.47
2019-03-21T14:24:50.413Z,4.30
2019-03-21T14:30:01.198Z,4.72
2019-03-21T14:34:57.945Z,4.30
2019-03-21T14:40:00.864Z,4.58
2019-03-21T14:45:04.813Z,4.90
2019-03-21T14:50:08.213Z,4.62
2019-03-21T14:55:12.540Z,5.33
2019-03-21T15:00:17.162Z,5.85
2019-03-21T15:05:19.914Z,6.08
2019-03-21T15:10:22.579Z,6.58
2019-03-21T15:15:25.306Z,7.00
2019-03-21T15:20:27.957Z,6.80
2019-03-21T15:25:30.659Z,7.42
2019-03-21T15:30:33.362Z,6.85
2019-03-21T15:35:36.247Z,6.50
2019-03-21T15:40:39.017Z,6.45
2019-03-21T15:45:41.704Z,6.60
2019-03-21T15:50:44.298Z,7.25
2019-03-21T15:55:47.082Z,6.05
2019-03-21T16:00:50.051Z,5.87
2019-03-21T16:05:52.640Z,5.10
2019-03-21T16:10:55.502Z,6.05
2019-03-21T16:15:58.290Z,5.30
2019-03-21T16:21:00.938Z,5.33
2019-03-21T16:26:03.839Z,5.67
2019-03-21T16:31:06.492Z,5.20
2019-03-21T16:36:09.132Z,5.45
2019-03-21T16:41:11.849Z,6.03
2019-03-21T16:46:14.485Z,5.53
2019-03-21T16:51:17.109Z,5.75
2019-03-21T16:56:19.816Z,6.25
2019-03-21T17:01:22.409Z,5.60
2019-03-21T17:06:25.440Z,5.22
2019-03-21T17:11:28.095Z,5.67
2019-03-21T17:16:30.842Z,5.70
2019-03-21T17:21:33.753Z,5.60
2019-03-21T17:26:36.643Z,5.97
2019-03-21T17:31:39.409Z,6.03
2019-03-21T17:36:42.052Z,6.08
2019-03-21T17:41:44.721Z,5.62
2019-03-21T17:46:47.350Z,5.47
2019-03-21T17:51:50.204Z,5.78
2019-03-21T17:56:52.875Z,7.22
2019-03-21T18:01:55.537Z,6.25
2019-03-21T18:06:58.408Z,7.22
2019-03-21T18:12:00.990Z,6.53
2019-03-21T18:17:03.918Z,6.50
2019-03-21T18:22:13.343Z,6.25
2019-03-21T18:27:16.067Z,7.37
2019-03-21T18:32:18.749Z,6.55
2019-03-21T18:37:21.691Z,6.40
2019-03-21T18:42:24.591Z,6.45
2019-03-21T18:47:27.157Z,6.20
2019-03-21T18:52:29.945Z,5.45
2019-03-21T18:57:32.811Z,6.35
2019-03-21T19:02:35.473Z,5.15
2019-03-21T19:07:38.213Z,5.33
2019-03-21T19:12:40.805Z,5.12
2019-03-21T19:17:43.443Z,5.05
2019-03-21T19:22:46.704Z,4.85
2019-03-21T19:27:49.370Z,5.35
2019-03-21T19:32:52.041Z,5.40
2019-03-21T19:37:54.673Z,5.15
2019-03-21T19:42:57.325Z,4.87
2019-03-21T19:48:00.322Z,5.40
2019-03-21T19:53:03.246Z,5.95
2019-03-21T19:58:05.939Z,6.03
2019-03-21T20:03:08.595Z,6.80
2019-03-21T20:08:11.604Z,7.30
2019-03-21T20:13:15.427Z,6.85
2019-03-21T20:18:18.140Z,6.60
2019-03-21T20:23:21.024Z,7.15
2019-03-21T20:28:23.798Z,6.72
2019-03-21T20:33:26.419Z,7.30
2019-03-21T20:38:29.180Z,8.25
2019-03-21T20:43:31.891Z,7.50
2019-03-21T20:48:33.017Z,6.95
2019-03-21T20:53:35.708Z,7.85
2019-03-21T20:58:38.348Z,7.97
2019-03-21T21:03:41.164Z,9.30
2019-03-21T21:08:43.962Z,9.10
2019-03-21T21:13:46.651Z,8.40
2019-03-21T21:18:49.226Z,8.63
2019-03-21T21:23:52.205Z,7.83
2019-03-21T21:28:54.842Z,8.45
2019-03-21T21:33:57.597Z,9.18
2019-03-21T21:39:00.199Z,9.48
2019-03-21T21:44:03.086Z,9.30
2019-03-21T21:49:06.132Z,10.18
2019-03-21T21:54:08.785Z,9.33
2019-03-21T21:59:11.521Z,10.48
2019-03-21T22:04:14.156Z,12.90
2019-03-21T22:09:16.875Z,10.30
2019-03-21T22:14:19.516Z,11.90
2019-03-21T22:19:22.179Z,11.68
2019-03-21T22:24:24.842Z,11.25
2019-03-21T22:29:27.739Z,10.72
2019-03-21T22:34:30.367Z,10.55
2019-03-21T22:39:32.992Z,10.68
2019-03-21T22:44:35.935Z,11.10
2019-03-21T22:49:38.707Z,12.58
2019-03-21T22:54:41.439Z,12.07
2019-03-21T22:59:44.102Z,11.68
2019-03-21T23:04:46.692Z,11.78
2019-03-21T23:09:49.434Z,11.68
2019-03-21T23:14:52.088Z,11.80
2019-03-21T23:19:54.812Z,11.38
2019-03-21T23:24:57.775Z,11.90
2019-03-21T23:30:00.367Z,11.73
2019-03-21T23:35:03.233Z,11.05
2019-03-21T23:40:06.741Z,12.43
2019-03-21T23:45:10.216Z,12.95
2019-03-21T23:50:14.370Z,12.10
2019-03-21T23:55:17.012Z,12.33
